Time;durP1;ratioP1;P1;durP2;ratioP2;P2;SDS_P1;SDS_P2;PMS_P1;PMS_P2;Temp;Humidity;BMP_temperature;BMP_pressure;BME280_temperature;BME280_humidity;BME280_pressure;Samples;Min_cycle;Max_cycle;Signal;HPM_P1;HPM_P2
2021/06/29 00:01:11;;;;;;;10.00;7.80;;;17.60;99.90;;;;;;5050562;28;20458;-76
2021/06/29 00:03:37;;;;;;;10.03;7.13;;;17.60;99.90;;;;;;5050466;28;20184;-77
2021/06/29 00:06:03;;;;;;;10.77;7.83;;;17.70;99.90;;;;;;5050677;28;20180;-76
2021/06/29 00:08:29;;;;;;;9.20;7.40;;;17.70;99.90;;;;;;5050812;28;20955;-78
2021/06/29 00:10:55;;;;;;;12.00;8.50;;;17.70;99.90;;;;;;5050088;28;20415;-77
2021/06/29 00:13:21;;;;;;;16.33;9.30;;;17.80;99.90;;;;;;5050829;28;20185;-76
2021/06/29 00:15:47;;;;;;;12.83;8.33;;;17.80;99.90;;;;;;5050435;28;20191;-76
2021/06/29 00:18:13;;;;;;;13.83;8.80;;;17.80;99.90;;;;;;5050548;28;20448;-76
2021/06/29 00:20:39;;;;;;;13.53;9.40;;;17.80;99.90;;;;;;5050252;28;20459;-76
2021/06/29 00:23:06;;;;;;;16.30;10.70;;;17.90;99.90;;;;;;5048879;28;20255;-76
2021/06/29 00:25:32;;;;;;;14.97;9.97;;;17.80;99.90;;;;;;5050283;28;20439;-77
2021/06/29 00:27:58;;;;;;;14.17;10.43;;;17.80;99.90;;;;;;5049342;28;20605;-77
2021/06/29 00:30:23;;;;;;;12.50;9.67;;;17.70;99.90;;;;;;5050807;28;20468;-77
2021/06/29 00:32:49;;;;;;;14.00;9.40;;;17.70;99.90;;;;;;5040346;28;20816;-77
2021/06/29 00:35:15;;;;;;;13.10;8.40;;;17.60;99.90;;;;;;5050722;28;20198;-77
2021/06/29 00:37:43;;;;;;;11.93;9.03;;;17.60;99.90;;;;;;5049573;28;20199;-77
2021/06/29 00:40:11;;;;;;;12.70;9.77;;;17.60;99.90;;;;;;5049069;28;20578;-75
2021/06/29 00:42:37;;;;;;;12.70;8.60;;;17.70;99.90;;;;;;5049632;28;20419;-76
2021/06/29 00:45:05;;;;;;;12.30;8.20;;;17.70;99.90;;;;;;5050049;28;20446;-78
2021/06/29 00:47:30;;;;;;;11.60;7.97;;;17.80;99.90;;;;;;5050100;28;20445;-77
2021/06/29 00:49:56;;;;;;;14.60;8.63;;;17.80;99.90;;;;;;5050307;28;20419;-77
2021/06/29 00:52:22;;;;;;;13.07;8.90;;;17.90;99.90;;;;;;5045306;28;20207;-77
2021/06/29 00:54:49;;;;;;;12.00;8.60;;;17.90;99.90;;;;;;5048653;28;20582;-76
2021/06/29 00:57:16;;;;;;;13.23;9.97;;;17.90;99.90;;;;;;5049617;28;20534;-76
2021/06/29 00:59:42;;;;;;;14.63;8.63;;;17.90;99.90;;;;;;5050177;28;20469;-77
2021/06/29 01:02:09;;;;;;;13.63;9.97;;;17.90;99.90;;;;;;5049216;28;20450;-76
2021/06/29 01:04:37;;;;;;;12.83;8.90;;;17.90;99.90;;;;;;5049469;28;20415;-76
2021/06/29 01:07:04;;;;;;;14.30;8.67;;;17.90;99.90;;;;;;5049705;28;20440;-75
2021/06/29 01:09:31;;;;;;;12.53;8.70;;;18.00;99.90;;;;;;5048802;28;20416;-76
2021/06/29 01:11:57;;;;;;;14.20;9.00;;;17.90;99.90;;;;;;5048994;28;20419;-75
2021/06/29 01:14:23;;;;;;;10.87;8.13;;;18.00;99.90;;;;;;5048304;28;20415;-76
2021/06/29 01:16:49;;;;;;;15.10;9.07;;;18.10;99.90;;;;;;5045825;28;20717;-75
2021/06/29 01:19:19;;;;;;;10.30;7.60;;;18.10;99.90;;;;;;5049209;28;20212;-76
2021/06/29 01:21:47;;;;;;;16.03;8.27;;;18.20;99.90;;;;;;5043089;28;20730;-75
2021/06/29 01:24:24;;;;;;;9.93;7.30;;;18.20;99.90;;;;;;5050234;28;20985;-77
2021/06/29 01:32:20;;;;;;;8.40;6.87;;;18.10;99.90;;;;;;5050496;28;20431;-77
2021/06/29 01:34:47;;;;;;;13.70;6.10;;;18.10;99.90;;;;;;5055728;28;20879;-74
2021/06/29 01:37:13;;;;;;;9.20;6.07;;;18.10;99.70;;;;;;5054524;28;20437;-76
2021/06/29 01:40:37;;;;;;;7.10;6.10;;;18.20;99.40;;;;;;5053575;28;20471;-76
2021/06/29 01:42:49;;;;;;;10.13;6.90;;;18.20;99.20;;;;;;5055072;28;20422;-76
2021/06/29 01:45:15;;;;;;;12.37;7.30;;;18.20;99.30;;;;;;5055397;28;20442;-75
2021/06/29 01:50:16;;;;;;;9.63;6.80;;;18.30;99.40;;;;;;5065470;28;20249;-77
2021/06/29 01:52:42;;;;;;;8.50;7.00;;;18.30;99.20;;;;;;5049588;28;20430;-76
2021/06/29 01:55:09;;;;;;;9.40;6.43;;;18.30;99.30;;;;;;5051321;28;20426;-75
2021/06/29 01:57:38;;;;;;;8.67;6.07;;;18.20;99.30;;;;;;5051609;28;20477;-75
2021/06/29 02:00:08;;;;;;;7.53;6.00;;;18.30;98.80;;;;;;5051628;28;20466;-77
2021/06/29 02:02:34;;;;;;;8.47;5.67;;;18.20;98.70;;;;;;5050375;28;20442;-74
2021/06/29 02:05:00;;;;;;;7.20;5.63;;;18.10;98.40;;;;;;5052313;28;20419;-74
2021/06/29 02:07:26;;;;;;;9.67;5.83;;;18.10;98.10;;;;;;5052243;28;20941;-75
2021/06/29 02:09:51;;;;;;;10.77;6.07;;;18.10;98.00;;;;;;5053176;28;21222;-76
2021/06/29 02:12:17;;;;;;;10.80;5.90;;;18.00;98.20;;;;;;5052177;28;20242;-76
2021/06/29 02:14:43;;;;;;;8.93;6.57;;;18.00;98.40;;;;;;5049795;28;20180;-76
2021/06/29 02:17:09;;;;;;;8.70;6.00;;;18.00;98.60;;;;;;5048897;28;20567;-76
2021/06/29 02:19:35;;;;;;;6.57;5.37;;;17.90;98.90;;;;;;5049534;28;20203;-76
2021/06/29 02:22:01;;;;;;;9.13;5.80;;;17.90;98.80;;;;;;5048338;28;20420;-77
2021/06/29 02:24:27;;;;;;;7.93;6.47;;;17.90;98.90;;;;;;5049214;28;20210;-76
2021/06/29 02:26:53;;;;;;;7.90;5.97;;;18.00;99.10;;;;;;5049089;28;20834;-76
2021/06/29 02:29:18;;;;;;;9.70;6.37;;;18.00;99.30;;;;;;5050171;28;20419;-77
2021/06/29 02:31:44;;;;;;;7.43;5.97;;;18.10;99.60;;;;;;5051385;28;20176;-77
2021/06/29 02:34:10;;;;;;;8.67;6.43;;;18.10;99.60;;;;;;5052646;28;20205;-76
2021/06/29 02:36:36;;;;;;;9.43;5.87;;;18.20;99.40;;;;;;5052813;28;20204;-76
2021/06/29 02:39:02;;;;;;;6.43;5.40;;;18.20;99.50;;;;;;5052604;28;20188;-76
2021/06/29 02:41:28;;;;;;;8.20;6.30;;;18.10;99.50;;;;;;5052086;28;20173;-78
2021/06/29 02:43:54;;;;;;;7.23;5.50;;;18.10;99.70;;;;;;5052214;28;20407;-77
2021/06/29 02:46:19;;;;;;;8.07;6.43;;;18.10;99.90;;;;;;5051365;28;20254;-77
2021/06/29 02:48:45;;;;;;;9.67;6.83;;;18.20;99.90;;;;;;5052275;28;20177;-76
2021/06/29 02:51:12;;;;;;;11.13;6.77;;;18.20;99.90;;;;;;5050576;28;20181;-75
2021/06/29 02:53:38;;;;;;;8.50;6.40;;;18.20;99.90;;;;;;5053003;28;20532;-77
2021/06/29 02:56:04;;;;;;;8.50;6.60;;;18.20;99.90;;;;;;5052169;28;20428;-75
2021/06/29 02:58:30;;;;;;;7.77;6.50;;;18.20;99.90;;;;;;5052625;28;20424;-75
2021/06/29 03:00:56;;;;;;;18.30;7.67;;;18.10;99.90;;;;;;5051570;28;20206;-76
2021/06/29 03:03:21;;;;;;;8.90;6.37;;;18.10;99.70;;;;;;5050952;28;20229;-76
2021/06/29 03:05:47;;;;;;;7.57;6.00;;;18.00;99.70;;;;;;5052125;28;20196;-76
2021/06/29 03:08:13;;;;;;;8.93;6.17;;;18.00;99.90;;;;;;5052798;28;20275;-75
2021/06/29 03:10:39;;;;;;;7.40;6.30;;;18.00;99.90;;;;;;5053518;28;20189;-76
2021/06/29 03:13:05;;;;;;;8.70;6.20;;;18.00;99.70;;;;;;5054465;28;20472;-75
2021/06/29 03:15:31;;;;;;;10.20;5.97;;;18.00;99.70;;;;;;5053104;28;20180;-75
2021/06/29 03:17:57;;;;;;;9.30;6.97;;;18.00;99.70;;;;;;5052501;28;20520;-76
2021/06/29 03:20:22;;;;;;;7.57;6.30;;;18.00;99.70;;;;;;5054575;28;20208;-76
2021/06/29 03:22:48;;;;;;;7.77;5.40;;;18.00;99.90;;;;;;5056007;28;20307;-76
2021/06/29 03:25:14;;;;;;;8.40;6.27;;;18.00;99.90;;;;;;5056043;28;20258;-74
2021/06/29 03:27:40;;;;;;;11.30;7.00;;;18.00;99.90;;;;;;5054227;28;20447;-75
2021/06/29 03:30:08;;;;;;;10.30;7.20;;;18.00;99.90;;;;;;5052218;28;20264;-76
2021/06/29 03:32:34;;;;;;;12.53;6.70;;;18.00;99.90;;;;;;5052165;28;20566;-75
2021/06/29 03:34:59;;;;;;;14.10;7.60;;;18.00;99.90;;;;;;5050464;28;20486;-77
2021/06/29 03:37:25;;;;;;;7.30;6.00;;;18.00;99.90;;;;;;5051725;28;20467;-76
2021/06/29 03:39:51;;;;;;;8.83;5.90;;;17.90;99.90;;;;;;5052875;28;20268;-76
2021/06/29 03:42:17;;;;;;;9.10;6.17;;;17.90;99.90;;;;;;5051078;28;20192;-76
2021/06/29 03:44:43;;;;;;;9.47;7.47;;;17.90;99.90;;;;;;5051705;28;20449;-77
2021/06/29 03:47:08;;;;;;;10.90;6.70;;;17.90;99.90;;;;;;5051963;28;20238;-75
2021/06/29 03:49:34;;;;;;;9.73;7.23;;;17.90;99.90;;;;;;5058694;28;20180;-75
2021/06/29 03:52:01;;;;;;;8.33;6.90;;;17.80;99.90;;;;;;5056626;28;20181;-76
2021/06/29 03:54:27;;;;;;;8.60;7.00;;;17.80;99.90;;;;;;5059039;28;20466;-76
2021/06/29 03:56:52;;;;;;;9.30;6.37;;;17.70;99.90;;;;;;5058927;28;20450;-75
2021/06/29 03:59:18;;;;;;;10.07;6.20;;;17.70;99.90;;;;;;5059657;28;20209;-75
2021/06/29 04:01:44;;;;;;;9.47;6.33;;;17.70;99.90;;;;;;5057512;28;20185;-75
2021/06/29 04:04:10;;;;;;;10.00;6.27;;;17.70;99.90;;;;;;5060129;28;20188;-75
2021/06/29 04:06:37;;;;;;;10.90;7.27;;;17.80;99.90;;;;;;5058319;28;20445;-75
2021/06/29 04:09:05;;;;;;;7.80;6.13;;;17.80;99.90;;;;;;5054239;28;20184;-75
2021/06/29 04:11:31;;;;;;;12.20;6.93;;;17.90;99.90;;;;;;5057473;28;20415;-75
2021/06/29 04:13:57;;;;;;;11.33;6.30;;;17.90;99.90;;;;;;5050415;28;20415;-73
2021/06/29 04:16:23;;;;;;;7.57;6.43;;;17.90;99.90;;;;;;5054643;28;20854;-74
2021/06/29 04:18:49;;;;;;;9.63;6.53;;;17.90;99.90;;;;;;5052362;28;20537;-75
2021/06/29 04:21:16;;;;;;;11.53;6.93;;;17.90;99.90;;;;;;5050485;28;20820;-76
2021/06/29 04:23:44;;;;;;;8.80;6.60;;;17.90;99.90;;;;;;5050857;28;21138;-75
2021/06/29 04:26:11;;;;;;;7.23;5.70;;;17.90;99.90;;;;;;5050860;28;20510;-76
2021/06/29 04:28:37;;;;;;;7.70;5.97;;;18.00;99.90;;;;;;5051183;28;20977;-75
2021/06/29 04:31:03;;;;;;;8.63;6.40;;;18.00;99.90;;;;;;5049759;28;20851;-75
2021/06/29 04:33:28;;;;;;;8.73;6.87;;;17.90;99.70;;;;;;5050315;28;20209;-74
2021/06/29 04:35:54;;;;;;;9.10;6.77;;;17.80;99.60;;;;;;5050204;28;20199;-75
2021/06/29 04:38:20;;;;;;;12.93;8.47;;;17.60;99.80;;;;;;5050672;28;20346;-74
2021/06/29 04:40:46;;;;;;;18.93;10.00;;;17.40;99.90;;;;;;5049497;28;20308;-75
2021/06/29 04:43:12;;;;;;;17.07;9.53;;;17.30;99.90;;;;;;5050486;28;20183;-76
2021/06/29 04:45:37;;;;;;;13.60;9.60;;;17.30;99.90;;;;;;5050391;28;20639;-74
2021/06/29 04:48:03;;;;;;;12.67;8.23;;;17.40;99.90;;;;;;5050084;28;20361;-75
2021/06/29 04:50:29;;;;;;;12.73;8.13;;;17.50;99.90;;;;;;5051084;28;20187;-75
2021/06/29 04:52:55;;;;;;;12.63;8.80;;;17.60;99.90;;;;;;5050101;28;20430;-75
2021/06/29 04:55:21;;;;;;;14.27;8.57;;;17.60;99.90;;;;;;5049310;28;20184;-75
2021/06/29 04:57:46;;;;;;;15.03;8.80;;;17.70;99.90;;;;;;5051161;28;20256;-75
2021/06/29 05:00:17;;;;;;;11.50;8.33;;;17.70;99.90;;;;;;5052083;28;20205;-75
2021/06/29 05:02:43;;;;;;;11.47;8.50;;;17.80;99.90;;;;;;5051365;28;20226;-75
2021/06/29 05:05:10;;;;;;;12.03;7.60;;;17.80;99.90;;;;;;5049417;28;20430;-75
2021/06/29 05:07:37;;;;;;;11.83;7.90;;;17.80;99.90;;;;;;5049789;28;20439;-74
2021/06/29 05:10:07;;;;;;;9.07;6.53;;;17.80;99.90;;;;;;5048361;28;20431;-74
2021/06/29 05:12:33;;;;;;;9.83;6.23;;;17.80;99.90;;;;;;5049167;28;20916;-75
2021/06/29 05:14:59;;;;;;;7.43;6.30;;;17.90;99.80;;;;;;5048793;28;20434;-76
2021/06/29 05:17:25;;;;;;;6.90;5.70;;;18.00;99.90;;;;;;5048707;28;20447;-75
2021/06/29 05:19:50;;;;;;;8.63;6.77;;;18.10;99.90;;;;;;5049582;28;20215;-75
2021/06/29 05:22:16;;;;;;;8.63;6.73;;;18.10;99.80;;;;;;5048921;28;20240;-77
2021/06/29 05:24:42;;;;;;;8.70;7.13;;;18.20;99.90;;;;;;5049108;28;20512;-77
2021/06/29 05:27:08;;;;;;;9.17;6.63;;;18.20;99.80;;;;;;5049339;28;20211;-76
2021/06/29 05:29:33;;;;;;;11.20;6.87;;;18.20;99.70;;;;;;5049662;28;20190;-75
2021/06/29 05:31:59;;;;;;;8.67;6.70;;;18.20;99.70;;;;;;5049233;28;20184;-76
2021/06/29 05:34:25;;;;;;;9.50;6.90;;;18.30;99.70;;;;;;5049338;28;20343;-75
2021/06/29 05:36:51;;;;;;;10.67;7.90;;;18.40;99.80;;;;;;5048347;28;20237;-77
2021/06/29 05:39:17;;;;;;;11.10;8.20;;;18.30;99.70;;;;;;5050159;28;20713;-75
2021/06/29 05:41:44;;;;;;;10.10;7.73;;;18.30;99.70;;;;;;5049713;28;20513;-74
2021/06/29 05:44:10;;;;;;;10.73;6.73;;;18.30;99.70;;;;;;5049436;28;20485;-75
2021/06/29 05:46:36;;;;;;;12.43;6.50;;;18.30;99.60;;;;;;5048896;28;20451;-74
2021/06/29 05:49:08;;;;;;;10.70;6.77;;;18.30;99.30;;;;;;5049170;28;20979;-76
2021/06/29 05:51:33;;;;;;;9.80;6.73;;;18.30;98.80;;;;;;5048649;28;20455;-75
2021/06/29 05:53:59;;;;;;;12.27;7.63;;;18.30;98.70;;;;;;5048995;28;20451;-78
2021/06/29 05:56:25;;;;;;;9.90;7.63;;;18.30;98.90;;;;;;5048403;28;20757;-75
2021/06/29 05:58:50;;;;;;;9.73;7.50;;;18.20;99.20;;;;;;5049217;28;20197;-75
2021/06/29 06:01:16;;;;;;;9.30;7.20;;;18.20;99.50;;;;;;5048619;28;20188;-76
2021/06/29 06:03:42;;;;;;;8.63;6.77;;;18.10;99.70;;;;;;5049214;28;20185;-76
2021/06/29 06:06:07;;;;;;;8.10;6.90;;;18.10;99.90;;;;;;5051976;28;20234;-76
2021/06/29 06:08:33;;;;;;;9.77;6.30;;;18.20;99.80;;;;;;5053770;28;20615;-73
2021/06/29 06:10:59;;;;;;;9.20;5.43;;;18.20;99.10;;;;;;5053107;28;20185;-75
2021/06/29 06:13:25;;;;;;;8.60;6.33;;;18.30;98.30;;;;;;5048622;28;20206;-76
2021/06/29 06:15:53;;;;;;;10.20;6.60;;;18.40;97.60;;;;;;5052262;28;20213;-76
2021/06/29 06:18:19;;;;;;;7.60;6.13;;;18.50;97.20;;;;;;5052101;28;20687;-76
2021/06/29 06:20:45;;;;;;;8.73;6.77;;;18.60;97.40;;;;;;5052199;28;20503;-77
2021/06/29 06:23:12;;;;;;;10.30;6.70;;;18.80;97.60;;;;;;5049017;28;20484;-75
2021/06/29 06:25:38;;;;;;;7.80;5.60;;;18.90;97.20;;;;;;5050035;28;20654;-74
2021/06/29 06:28:04;;;;;;;7.90;5.60;;;19.10;96.70;;;;;;5053170;28;20483;-76
2021/06/29 06:30:30;;;;;;;7.70;5.83;;;19.20;96.40;;;;;;5051383;28;20201;-72
2021/06/29 06:32:56;;;;;;;12.03;6.40;;;19.40;95.70;;;;;;5051774;28;20427;-74
2021/06/29 06:35:22;;;;;;;6.60;5.57;;;19.50;95.10;;;;;;5052799;28;20426;-74
2021/06/29 06:37:48;;;;;;;5.70;4.57;;;19.50;94.60;;;;;;5051197;28;20226;-73
2021/06/29 06:40:13;;;;;;;5.20;4.30;;;19.50;92.80;;;;;;5052509;28;20284;-73
2021/06/29 06:42:40;;;;;;;9.60;5.63;;;19.70;92.30;;;;;;5052227;28;20528;-75
2021/06/29 06:45:24;;;;;;;6.70;4.40;;;19.80;92.70;;;;;;5054556;28;20745;-75
2021/06/29 06:47:52;;;;;;;6.30;4.80;;;19.90;90.90;;;;;;5051194;28;20968;-74
2021/06/29 06:50:18;;;;;;;4.50;4.10;;;19.80;90.70;;;;;;5053124;28;20417;-74
2021/06/29 06:52:43;;;;;;;7.60;4.63;;;19.80;91.00;;;;;;5051701;28;20423;-74
2021/06/29 06:55:11;;;;;;;4.67;3.50;;;20.00;91.00;;;;;;5067001;28;20219;-73
2021/06/29 06:57:37;;;;;;;6.17;4.20;;;19.90;90.10;;;;;;5052751;28;20887;-73
2021/06/29 07:00:05;;;;;;;4.13;3.63;;;19.90;89.60;;;;;;5052468;28;20474;-74
2021/06/29 07:02:31;;;;;;;3.77;3.20;;;19.80;89.30;;;;;;5051593;28;20415;-75
2021/06/29 07:04:57;;;;;;;7.60;4.10;;;19.60;87.60;;;;;;5049687;28;21116;-74
2021/06/29 07:07:22;;;;;;;5.63;4.00;;;19.50;90.00;;;;;;5052123;28;20441;-75
2021/06/29 07:09:48;;;;;;;6.83;4.53;;;19.50;90.60;;;;;;5050511;28;20640;-76
2021/06/29 07:12:14;;;;;;;7.73;5.73;;;19.60;90.90;;;;;;5051172;28;20187;-73
2021/06/29 07:14:40;;;;;;;5.17;3.90;;;19.80;90.80;;;;;;5050773;28;20208;-75
2021/06/29 07:17:05;;;;;;;5.93;3.97;;;19.80;90.10;;;;;;5050579;28;20200;-74
2021/06/29 07:19:31;;;;;;;4.73;3.30;;;19.90;90.30;;;;;;5051932;28;20216;-74
2021/06/29 07:21:57;;;;;;;5.37;4.13;;;19.90;87.60;;;;;;5051270;28;20411;-72
2021/06/29 07:24:23;;;;;;;6.10;3.10;;;19.90;87.60;;;;;;5051796;28;20173;-74
2021/06/29 07:26:48;;;;;;;7.23;4.20;;;19.90;87.80;;;;;;5051088;28;20757;-76
2021/06/29 07:29:14;;;;;;;4.83;3.30;;;20.00;88.10;;;;;;5052078;28;20191;-73
2021/06/29 07:31:40;;;;;;;7.90;4.07;;;20.20;89.60;;;;;;5048163;28;20184;-74
2021/06/29 07:34:06;;;;;;;7.37;3.70;;;20.20;88.60;;;;;;5054579;28;20681;-74
2021/06/29 07:36:32;;;;;;;3.70;3.60;;;20.30;86.20;;;;;;5051718;28;20488;-71
2021/06/29 07:38:58;;;;;;;3.77;3.13;;;20.40;86.00;;;;;;5051319;28;20315;-75
2021/06/29 07:41:24;;;;;;;4.63;3.50;;;20.50;85.20;;;;;;5051686;28;20195;-74
2021/06/29 07:43:50;;;;;;;5.80;4.00;;;20.70;85.50;;;;;;5052098;28;20419;-74
2021/06/29 07:46:16;;;;;;;5.90;3.53;;;20.70;85.90;;;;;;5050325;28;20432;-74
2021/06/29 07:48:42;;;;;;;2.40;2.20;;;20.80;85.00;;;;;;5052458;28;20502;-75
2021/06/29 07:51:09;;;;;;;5.00;3.20;;;20.80;81.80;;;;;;5051328;28;20311;-73
2021/06/29 07:53:36;;;;;;;3.50;2.77;;;20.90;83.00;;;;;;5062038;28;20208;-74
2021/06/29 07:56:02;;;;;;;3.10;2.50;;;20.90;82.50;;;;;;5057355;28;20789;-74
2021/06/29 07:58:28;;;;;;;4.97;3.03;;;21.00;79.00;;;;;;5051977;28;20536;-75
2021/06/29 08:00:55;;;;;;;3.60;2.33;;;21.00;80.30;;;;;;5050717;28;20467;-73
2021/06/29 08:03:21;;;;;;;5.37;3.00;;;21.10;79.00;;;;;;5051274;28;20507;-73
2021/06/29 08:05:46;;;;;;;2.73;2.60;;;21.20;79.30;;;;;;5050777;28;20846;-74
2021/06/29 08:08:12;;;;;;;4.90;2.43;;;21.20;80.60;;;;;;5051571;28;20303;-73
2021/06/29 08:10:38;;;;;;;3.30;2.77;;;21.30;77.60;;;;;;5050768;28;20276;-74
2021/06/29 08:13:05;;;;;;;3.30;2.57;;;21.30;78.90;;;;;;5050709;28;20627;-74
2021/06/29 08:15:31;;;;;;;2.67;2.47;;;21.30;79.70;;;;;;5052134;28;20181;-73
2021/06/29 08:17:57;;;;;;;4.10;3.00;;;21.40;77.10;;;;;;5052922;28;20460;-71
2021/06/29 08:20:23;;;;;;;2.40;2.20;;;21.60;77.10;;;;;;5053228;28;20457;-72
2021/06/29 08:22:51;;;;;;;2.93;2.60;;;21.60;77.30;;;;;;5053905;28;20186;-73
2021/06/29 08:25:17;;;;;;;2.80;2.00;;;21.70;77.00;;;;;;5054686;28;20265;-73
2021/06/29 08:27:43;;;;;;;2.50;2.00;;;21.80;71.70;;;;;;5056237;28;20440;-73
2021/06/29 08:30:11;;;;;;;2.90;2.10;;;21.90;70.80;;;;;;5056072;28;20448;-72
2021/06/29 08:32:38;;;;;;;3.33;2.70;;;21.90;71.60;;;;;;5058680;28;20710;-73
2021/06/29 08:35:11;;;;;;;3.60;2.43;;;21.90;74.50;;;;;;5055151;28;20726;-74
2021/06/29 08:37:37;;;;;;;3.70;2.53;;;21.90;74.60;;;;;;5050230;28;20536;-73
2021/06/29 08:40:07;;;;;;;2.60;2.20;;;22.00;72.00;;;;;;5051194;28;20473;-74
2021/06/29 08:42:36;;;;;;;2.50;2.10;;;22.20;71.10;;;;;;5050103;28;20508;-71
2021/06/29 08:45:08;;;;;;;3.33;2.57;;;22.20;71.80;;;;;;5050447;28;20406;-72
2021/06/29 08:47:35;;;;;;;3.17;2.40;;;22.10;73.20;;;;;;5062958;28;20525;-74
2021/06/29 08:50:03;;;;;;;3.33;2.40;;;22.10;74.20;;;;;;5050136;28;20509;-72
2021/06/29 08:52:29;;;;;;;3.00;2.33;;;22.10;73.70;;;;;;5049206;28;20441;-73
2021/06/29 08:54:55;;;;;;;5.10;2.50;;;22.10;73.50;;;;;;5049443;28;20436;-72
2021/06/29 08:57:21;;;;;;;3.97;2.70;;;22.20;72.60;;;;;;5049838;28;20442;-74
2021/06/29 08:59:47;;;;;;;3.30;2.80;;;22.30;71.30;;;;;;5050073;28;20230;-73
2021/06/29 09:02:12;;;;;;;4.50;3.00;;;22.30;73.50;;;;;;5049333;28;20258;-74
2021/06/29 09:04:46;;;;;;;4.20;3.00;;;22.40;72.30;;;;;;5047831;28;20179;-72
2021/06/29 09:07:31;;;;;;;3.60;2.50;;;22.40;73.90;;;;;;5049867;28;20328;-73
2021/06/29 09:09:59;;;;;;;3.57;2.70;;;22.60;72.40;;;;;;5049876;28;20428;-73
2021/06/29 09:12:45;;;;;;;3.00;2.80;;;22.70;74.00;;;;;;5048054;28;20572;-75
2021/06/29 09:15:44;;;;;;;2.97;2.77;;;22.90;72.60;;;;;;5049505;28;20799;-73
2021/06/29 09:18:12;;;;;;;2.90;2.70;;;23.00;72.30;;;;;;5045443;28;20464;-74
2021/06/29 09:20:52;;;;;;;3.90;2.40;;;23.20;72.00;;;;;;5046531;28;20514;-72
2021/06/29 09:23:20;;;;;;;4.20;2.80;;;23.10;69.70;;;;;;5047940;28;20529;-75
2021/06/29 09:25:55;;;;;;;4.40;3.10;;;22.90;72.30;;;;;;5048907;28;20425;-74
2021/06/29 09:28:24;;;;;;;3.37;2.90;;;22.90;73.00;;;;;;5049029;28;20457;-75
2021/06/29 09:31:02;;;;;;;3.63;2.73;;;22.70;72.70;;;;;;5048475;28;21010;-73
2021/06/29 09:33:36;;;;;;;6.50;3.10;;;22.50;73.00;;;;;;5049084;28;20440;-73
2021/06/29 09:36:24;;;;;;;2.90;2.60;;;22.60;72.40;;;;;;5048873;28;20426;-74
2021/06/29 09:38:51;;;;;;;4.80;3.30;;;22.80;72.40;;;;;;5049074;28;20434;-73
2021/06/29 09:41:20;;;;;;;3.57;2.90;;;22.90;70.40;;;;;;5048302;28;20473;-73
2021/06/29 09:43:48;;;;;;;4.60;2.43;;;23.00;68.20;;;;;;5048920;28;20420;-74
2021/06/29 09:46:16;;;;;;;3.40;2.67;;;23.00;69.50;;;;;;5047276;28;20426;-72
2021/06/29 09:48:54;;;;;;;3.00;2.27;;;23.20;69.20;;;;;;5048904;28;20477;-73
2021/06/29 09:51:21;;;;;;;4.50;2.60;;;23.30;66.70;;;;;;5043483;28;20416;-73
2021/06/29 09:53:51;;;;;;;1.87;1.80;;;23.30;69.10;;;;;;5048706;28;20424;-73
2021/06/29 09:56:23;;;;;;;5.23;2.43;;;23.20;68.30;;;;;;5049007;28;20430;-73
2021/06/29 09:58:58;;;;;;;4.87;2.40;;;23.20;69.40;;;;;;5042903;28;20426;-75
2021/06/29 10:01:28;;;;;;;4.37;2.40;;;23.20;68.60;;;;;;5048768;28;20461;-73
2021/06/29 10:03:55;;;;;;;2.73;2.27;;;23.30;68.50;;;;;;5048979;28;20430;-74
2021/06/29 10:06:29;;;;;;;3.30;2.60;;;23.30;68.00;;;;;;5049113;28;20442;-73
2021/06/29 10:09:07;;;;;;;5.10;2.23;;;23.20;68.00;;;;;;5064470;28;20423;-73
2021/06/29 10:11:38;;;;;;;3.47;2.60;;;23.20;68.60;;;;;;5048515;28;20479;-72
2021/06/29 10:14:13;;;;;;;2.67;2.53;;;23.30;68.60;;;;;;5048753;28;20417;-74
2021/06/29 10:16:43;;;;;;;2.83;2.30;;;23.70;66.90;;;;;;5048641;28;20427;-74
2021/06/29 10:21:45;;;;;;;3.70;2.50;;;24.10;65.40;;;;;;5048413;28;20505;-73
2021/06/29 10:24:13;;;;;;;2.60;2.20;;;24.10;65.10;;;;;;5052654;28;20451;-74
2021/06/29 10:26:42;;;;;;;2.73;2.33;;;24.30;64.20;;;;;;5051840;28;20452;-73
2021/06/29 10:29:17;;;;;;;4.30;3.17;;;24.30;63.40;;;;;;5050299;28;20512;-74
2021/06/29 10:31:49;;;;;;;2.63;2.43;;;24.20;64.20;;;;;;5048553;28;20508;-72
2021/06/29 10:34:15;;;;;;;3.00;2.40;;;24.40;64.70;;;;;;5048750;28;20456;-72
2021/06/29 10:36:53;;;;;;;3.27;2.23;;;24.80;63.10;;;;;;5048886;28;20603;-74
2021/06/29 10:39:23;;;;;;;3.00;2.50;;;25.10;63.20;;;;;;5049173;28;20530;-74
2021/06/29 10:41:57;;;;;;;3.67;2.60;;;25.30;62.80;;;;;;5048244;28;20423;-74
2021/06/29 10:44:23;;;;;;;2.90;2.50;;;25.70;61.20;;;;;;5047738;28;20429;-73
2021/06/29 10:46:52;;;;;;;3.87;2.80;;;25.70;61.20;;;;;;5049041;28;20447;-74
2021/06/29 10:49:31;;;;;;;4.17;3.40;;;25.80;61.90;;;;;;5048315;28;20418;-73
2021/06/29 10:52:01;;;;;;;4.60;3.30;;;26.10;60.90;;;;;;5048787;28;20996;-73
2021/06/29 10:54:46;;;;;;;4.33;2.70;;;26.40;61.30;;;;;;5052339;28;20437;-72
2021/06/29 10:57:17;;;;;;;3.40;2.90;;;26.80;60.00;;;;;;5051758;28;20849;-74
2021/06/29 10:59:49;;;;;;;3.83;2.90;;;27.00;58.20;;;;;;5052592;28;20469;-74
2021/06/29 11:02:29;;;;;;;3.43;2.57;;;27.20;59.60;;;;;;5052418;28;20421;-75
2021/06/29 11:05:04;;;;;;;5.97;3.30;;;27.50;58.40;;;;;;5052359;28;20415;-76
2021/06/29 11:07:35;;;;;;;4.67;3.30;;;27.80;55.30;;;;;;5052077;28;20465;-73
2021/06/29 11:10:10;;;;;;;4.53;3.43;;;27.70;55.20;;;;;;5049648;28;20423;-75
2021/06/29 11:12:46;;;;;;;4.17;3.60;;;27.40;56.00;;;;;;5051512;28;20857;-74
2021/06/29 11:15:12;;;;;;;3.80;3.00;;;27.20;56.60;;;;;;5052370;28;20924;-74
2021/06/29 11:17:47;;;;;;;4.57;3.50;;;27.20;56.50;;;;;;5051911;28;20450;-76
2021/06/29 11:20:20;;;;;;;5.33;4.53;;;27.10;56.80;;;;;;5046525;28;20473;-74
2021/06/29 11:23:32;;;;;;;4.60;4.00;;;26.90;58.00;;;;;;5051728;28;20534;-74
2021/06/29 11:26:13;;;;;;;3.47;3.17;;;27.20;56.90;;;;;;5029478;28;20420;-75
2021/06/29 11:28:48;;;;;;;5.50;3.00;;;27.60;56.10;;;;;;5030036;28;20928;-73
2021/06/29 11:31:19;;;;;;;3.90;3.20;;;27.90;55.20;;;;;;5030783;28;20427;-72
2021/06/29 11:33:58;;;;;;;5.00;3.30;;;28.10;55.30;;;;;;5029099;28;20534;-73
2021/06/29 11:36:24;;;;;;;4.27;2.70;;;28.20;54.60;;;;;;5029486;28;20469;-74
2021/06/29 11:38:50;;;;;;;3.33;3.10;;;28.20;53.80;;;;;;5029642;28;20546;-73
2021/06/29 11:41:28;;;;;;;6.27;3.13;;;27.90;56.20;;;;;;5029033;28;20238;-73
2021/06/29 11:44:07;;;;;;;3.20;3.00;;;27.80;55.30;;;;;;5029678;28;20466;-72
2021/06/29 11:47:03;;;;;;;3.73;3.30;;;26.80;56.80;;;;;;5029204;28;20546;-74
2021/06/29 11:49:48;;;;;;;3.23;2.90;;;26.20;58.50;;;;;;5023354;28;20435;-72
2021/06/29 11:52:13;;;;;;;4.03;3.50;;;26.40;58.70;;;;;;5025786;28;20449;-72
2021/06/29 11:54:59;;;;;;;4.33;3.50;;;25.70;60.60;;;;;;5030757;28;20430;-72
2021/06/29 11:57:30;;;;;;;3.33;3.07;;;25.40;61.60;;;;;;5032465;28;20207;-74
2021/06/29 11:59:57;;;;;;;9.70;3.53;;;25.60;62.20;;;;;;5043447;28;20568;-73
2021/06/29 12:02:28;;;;;;;4.37;2.90;;;25.80;61.20;;;;;;5050359;28;20512;-73
2021/06/29 12:04:56;;;;;;;3.80;2.90;;;25.90;61.00;;;;;;5057805;28;20896;-73
2021/06/29 12:08:02;;;;;;;4.53;3.50;;;26.10;59.60;;;;;;5052463;28;20475;-74
2021/06/29 12:10:39;;;;;;;3.83;2.83;;;25.40;61.70;;;;;;5048653;28;20911;-72
2021/06/29 12:13:10;;;;;;;6.60;3.10;;;25.50;61.90;;;;;;5048841;28;20458;-72
2021/06/29 12:15:39;;;;;;;4.10;3.00;;;25.50;62.30;;;;;;5047338;28;20491;-73
2021/06/29 12:18:10;;;;;;;4.00;3.30;;;26.00;59.90;;;;;;5050389;28;20927;-72
2021/06/29 12:20:47;;;;;;;4.30;3.30;;;25.60;60.90;;;;;;5042464;28;20474;-74
2021/06/29 12:23:16;;;;;;;3.40;3.20;;;25.90;63.40;;;;;;5050437;28;20911;-72
2021/06/29 12:25:44;;;;;;;4.80;3.03;;;26.50;58.40;;;;;;5050062;28;20486;-73
2021/06/29 12:28:11;;;;;;;3.20;3.00;;;26.60;58.00;;;;;;5050611;28;20584;-73
2021/06/29 12:30:48;;;;;;;4.30;3.07;;;27.00;56.90;;;;;;5050227;28;20428;-73
2021/06/29 12:33:28;;;;;;;3.40;3.20;;;27.10;56.50;;;;;;5048904;28;20445;-72
2021/06/29 12:36:02;;;;;;;4.60;3.03;;;26.50;58.40;;;;;;5048678;28;20512;-73
2021/06/29 12:38:31;;;;;;;4.00;3.13;;;26.00;58.40;;;;;;5050659;28;20415;-73
2021/06/29 12:41:03;;;;;;;3.00;2.80;;;26.30;58.00;;;;;;5047500;28;21495;-73
2021/06/29 12:43:30;;;;;;;7.10;3.70;;;26.40;58.20;;;;;;5050061;28;20457;-72
2021/06/29 12:45:57;;;;;;;3.70;3.43;;;25.80;58.80;;;;;;5049529;28;20423;-72
2021/06/29 12:48:24;;;;;;;6.53;3.83;;;25.30;60.60;;;;;;5050214;28;20496;-74
2021/06/29 12:50:59;;;;;;;3.73;3.30;;;25.10;61.20;;;;;;5048989;28;20428;-73
2021/06/29 12:53:25;;;;;;;3.47;3.30;;;25.10;62.60;;;;;;5049486;28;20479;-73
2021/06/29 12:55:51;;;;;;;4.33;3.57;;;24.80;64.70;;;;;;5049133;28;20919;-72
2021/06/29 12:58:17;;;;;;;5.27;4.03;;;24.80;65.10;;;;;;5049902;28;20445;-73
2021/06/29 13:00:48;;;;;;;4.27;3.70;;;24.80;65.10;;;;;;5049078;28;20285;-74